sensor_id;sensor_type;location;lat;lon;timestamp;temperature;humidity
39889;DHT22;25563;50.844;4.308;2023-12-28T00:02:05;12.00;99.90
39889;DHT22;25563;50.844;4.308;2023-12-28T00:04:31;12.10;99.90
39889;DHT22;25563;50.844;4.308;2023-12-28T00:06:58;12.10;99.90
39889;DHT22;25563;50.844;4.308;2023-12-28T00:09:24;12.00;99.90
39889;DHT22;25563;50.844;4.308;2023-12-28T00:11:52;12.10;99.90
39889;DHT22;25563;50.844;4.308;2023-12-28T00:14:19;12.20;99.90
39889;DHT22;25563;50.844;4.308;2023-12-28T00:16:45;12.30;99.90
39889;DHT22;25563;50.844;4.308;2023-12-28T00:19:11;12.30;99.90
39889;DHT22;25563;50.844;4.308;2023-12-28T00:21:37;12.20;99.90
39889;DHT22;25563;50.844;4.308;2023-12-28T00:24:04;12.10;99.90
39889;DHT22;25563;50.844;4.308;2023-12-28T00:26:30;12.10;99.90
39889;DHT22;25563;50.844;4.308;2023-12-28T00:28:56;12.00;99.90
39889;DHT22;25563;50.844;4.308;2023-12-28T00:31:22;12.00;99.90
39889;DHT22;25563;50.844;4.308;2023-12-28T00:33:48;12.20;99.90
39889;DHT22;25563;50.844;4.308;2023-12-28T00:36:15;12.20;99.90
39889;DHT22;25563;50.844;4.308;2023-12-28T00:38:42;12.40;99.90
39889;DHT22;25563;50.844;4.308;2023-12-28T00:41:08;12.10;99.90
39889;DHT22;25563;50.844;4.308;2023-12-28T00:43:34;12.20;99.90
39889;DHT22;25563;50.844;4.308;2023-12-28T00:45:59;12.20;99.90
39889;DHT22;25563;50.844;4.308;2023-12-28T00:48:25;12.20;99.90
39889;DHT22;25563;50.844;4.308;2023-12-28T00:50:51;12.20;99.90
39889;DHT22;25563;50.844;4.308;2023-12-28T00:53:18;12.00;99.90
39889;DHT22;25563;50.844;4.308;2023-12-28T00:55:43;12.00;99.90
39889;DHT22;25563;50.844;4.308;2023-12-28T00:58:09;12.20;99.90
39889;DHT22;25563;50.844;4.308;2023-12-28T01:00:35;12.20;99.90
39889;DHT22;25563;50.844;4.308;2023-12-28T01:03:01;12.20;99.90
39889;DHT22;25563;50.844;4.308;2023-12-28T01:05:29;12.30;99.90
39889;DHT22;25563;50.844;4.308;2023-12-28T01:07:55;12.30;99.90
39889;DHT22;25563;50.844;4.308;2023-12-28T01:10:21;12.20;99.90
39889;DHT22;25563;50.844;4.308;2023-12-28T01:12:46;12.20;99.90
39889;DHT22;25563;50.844;4.308;2023-12-28T01:15:12;12.10;99.90
39889;DHT22;25563;50.844;4.308;2023-12-28T01:17:39;12.70;99.90
39889;DHT22;25563;50.844;4.308;2023-12-28T01:20:05;12.00;99.90
39889;DHT22;25563;50.844;4.308;2023-12-28T01:22:31;12.10;99.90
39889;DHT22;25563;50.844;4.308;2023-12-28T01:24:57;12.00;99.90
39889;DHT22;25563;50.844;4.308;2023-12-28T01:27:23;12.10;99.90
39889;DHT22;25563;50.844;4.308;2023-12-28T01:29:50;12.10;99.90
39889;DHT22;25563;50.844;4.308;2023-12-28T01:32:16;11.90;99.90
39889;DHT22;25563;50.844;4.308;2023-12-28T01:34:43;11.90;99.90
39889;DHT22;25563;50.844;4.308;2023-12-28T01:37:08;12.00;99.90
39889;DHT22;25563;50.844;4.308;2023-12-28T01:39:34;11.30;99.90
39889;DHT22;25563;50.844;4.308;2023-12-28T01:42:01;11.90;99.90
39889;DHT22;25563;50.844;4.308;2023-12-28T01:44:27;11.90;99.90
39889;DHT22;25563;50.844;4.308;2023-12-28T01:46:53;11.90;99.90
39889;DHT22;25563;50.844;4.308;2023-12-28T01:49:19;12.00;99.90
39889;DHT22;25563;50.844;4.308;2023-12-28T01:51:45;12.00;99.90
39889;DHT22;25563;50.844;4.308;2023-12-28T01:54:13;12.00;99.90
39889;DHT22;25563;50.844;4.308;2023-12-28T01:56:40;11.90;99.90
39889;DHT22;25563;50.844;4.308;2023-12-28T01:59:07;12.00;99.90
39889;DHT22;25563;50.844;4.308;2023-12-28T02:01:33;11.90;99.90
39889;DHT22;25563;50.844;4.308;2023-12-28T02:03:59;11.90;99.90
39889;DHT22;25563;50.844;4.308;2023-12-28T02:06:25;12.00;99.90
39889;DHT22;25563;50.844;4.308;2023-12-28T02:08:51;11.90;99.90
39889;DHT22;25563;50.844;4.308;2023-12-28T02:11:22;11.80;99.90
39889;DHT22;25563;50.844;4.308;2023-12-28T02:13:48;11.90;99.90
39889;DHT22;25563;50.844;4.308;2023-12-28T02:16:17;12.00;99.90
39889;DHT22;25563;50.844;4.308;2023-12-28T02:18:50;11.90;99.90
39889;DHT22;25563;50.844;4.308;2023-12-28T02:21:18;12.00;99.90
39889;DHT22;25563;50.844;4.308;2023-12-28T02:23:49;11.90;99.90
39889;DHT22;25563;50.844;4.308;2023-12-28T02:26:18;12.00;99.90
39889;DHT22;25563;50.844;4.308;2023-12-28T02:28:47;12.20;99.90
39889;DHT22;25563;50.844;4.308;2023-12-28T02:31:21;12.60;99.90
39889;DHT22;25563;50.844;4.308;2023-12-28T02:33:57;12.40;99.90
39889;DHT22;25563;50.844;4.308;2023-12-28T02:36:24;12.20;99.90
39889;DHT22;25563;50.844;4.308;2023-12-28T02:38:53;12.40;99.90
39889;DHT22;25563;50.844;4.308;2023-12-28T02:41:21;12.40;99.90
39889;DHT22;25563;50.844;4.308;2023-12-28T02:43:48;12.50;99.90
39889;DHT22;25563;50.844;4.308;2023-12-28T02:46:14;12.30;99.90
39889;DHT22;25563;50.844;4.308;2023-12-28T02:48:40;12.40;99.90
39889;DHT22;25563;50.844;4.308;2023-12-28T02:51:07;11.90;99.90
39889;DHT22;25563;50.844;4.308;2023-12-28T02:53:33;12.20;99.90
39889;DHT22;25563;50.844;4.308;2023-12-28T02:55:58;12.30;99.90
39889;DHT22;25563;50.844;4.308;2023-12-28T02:58:24;12.30;99.90
39889;DHT22;25563;50.844;4.308;2023-12-28T03:00:50;12.10;99.90
39889;DHT22;25563;50.844;4.308;2023-12-28T03:03:16;12.00;99.90
39889;DHT22;25563;50.844;4.308;2023-12-28T03:05:42;12.00;99.90
39889;DHT22;25563;50.844;4.308;2023-12-28T03:08:08;12.10;99.90
39889;DHT22;25563;50.844;4.308;2023-12-28T03:10:34;12.00;99.90
39889;DHT22;25563;50.844;4.308;2023-12-28T03:13:01;12.20;99.90
39889;DHT22;25563;50.844;4.308;2023-12-28T03:15:27;12.00;99.90
39889;DHT22;25563;50.844;4.308;2023-12-28T03:17:54;12.10;99.90
39889;DHT22;25563;50.844;4.308;2023-12-28T03:20:20;12.10;99.90
39889;DHT22;25563;50.844;4.308;2023-12-28T03:22:46;12.10;99.90
39889;DHT22;25563;50.844;4.308;2023-12-28T03:25:12;12.10;99.90
39889;DHT22;25563;50.844;4.308;2023-12-28T03:27:37;12.10;99.90
39889;DHT22;25563;50.844;4.308;2023-12-28T03:30:03;12.30;99.90
39889;DHT22;25563;50.844;4.308;2023-12-28T03:32:29;12.10;99.90
39889;DHT22;25563;50.844;4.308;2023-12-28T03:34:55;12.00;99.90
39889;DHT22;25563;50.844;4.308;2023-12-28T03:37:22;12.00;99.90
39889;DHT22;25563;50.844;4.308;2023-12-28T03:39:47;11.90;99.90
39889;DHT22;25563;50.844;4.308;2023-12-28T03:42:13;11.90;99.90
39889;DHT22;25563;50.844;4.308;2023-12-28T03:44:40;12.10;99.90
39889;DHT22;25563;50.844;4.308;2023-12-28T03:47:07;12.20;99.90
39889;DHT22;25563;50.844;4.308;2023-12-28T03:49:32;12.10;99.90
39889;DHT22;25563;50.844;4.308;2023-12-28T03:51:58;12.00;99.90
39889;DHT22;25563;50.844;4.308;2023-12-28T03:54:24;12.00;99.90
39889;DHT22;25563;50.844;4.308;2023-12-28T03:56:50;12.10;99.90
39889;DHT22;25563;50.844;4.308;2023-12-28T03:59:15;12.20;99.90
39889;DHT22;25563;50.844;4.308;2023-12-28T04:01:41;12.10;99.90
39889;DHT22;25563;50.844;4.308;2023-12-28T04:04:07;12.10;99.90
39889;DHT22;25563;50.844;4.308;2023-12-28T04:06:34;12.30;99.90
39889;DHT22;25563;50.844;4.308;2023-12-28T04:08:59;12.20;99.90
39889;DHT22;25563;50.844;4.308;2023-12-28T04:11:25;12.20;99.90
39889;DHT22;25563;50.844;4.308;2023-12-28T04:13:51;12.00;99.90
39889;DHT22;25563;50.844;4.308;2023-12-28T04:16:17;12.20;99.90
39889;DHT22;25563;50.844;4.308;2023-12-28T04:18:43;12.40;99.90
39889;DHT22;25563;50.844;4.308;2023-12-28T04:21:10;12.30;99.90
39889;DHT22;25563;50.844;4.308;2023-12-28T04:23:37;12.10;99.90
39889;DHT22;25563;50.844;4.308;2023-12-28T04:26:03;12.00;99.90
39889;DHT22;25563;50.844;4.308;2023-12-28T04:28:29;11.90;99.90
39889;DHT22;25563;50.844;4.308;2023-12-28T04:30:56;12.10;99.90
39889;DHT22;25563;50.844;4.308;2023-12-28T04:33:22;12.30;99.90
39889;DHT22;25563;50.844;4.308;2023-12-28T04:35:48;12.30;99.90
39889;DHT22;25563;50.844;4.308;2023-12-28T04:38:14;12.30;99.90
39889;DHT22;25563;50.844;4.308;2023-12-28T04:40:40;12.30;99.90
39889;DHT22;25563;50.844;4.308;2023-12-28T04:43:06;12.20;99.90
39889;DHT22;25563;50.844;4.308;2023-12-28T04:45:32;11.90;99.90
39889;DHT22;25563;50.844;4.308;2023-12-28T04:47:58;11.90;99.90
39889;DHT22;25563;50.844;4.308;2023-12-28T04:50:24;12.00;99.90
39889;DHT22;25563;50.844;4.308;2023-12-28T04:52:50;12.00;99.90
39889;DHT22;25563;50.844;4.308;2023-12-28T04:55:16;12.00;99.90
39889;DHT22;25563;50.844;4.308;2023-12-28T04:57:42;12.00;99.90
39889;DHT22;25563;50.844;4.308;2023-12-28T05:00:08;12.00;99.90
39889;DHT22;25563;50.844;4.308;2023-12-28T05:02:35;11.80;99.90
39889;DHT22;25563;50.844;4.308;2023-12-28T05:05:01;11.70;99.90
39889;DHT22;25563;50.844;4.308;2023-12-28T05:07:26;11.90;99.90
39889;DHT22;25563;50.844;4.308;2023-12-28T05:09:52;11.70;99.90
39889;DHT22;25563;50.844;4.308;2023-12-28T05:12:20;11.70;99.90
39889;DHT22;25563;50.844;4.308;2023-12-28T05:14:46;11.70;99.90
39889;DHT22;25563;50.844;4.308;2023-12-28T05:17:12;11.90;99.90
39889;DHT22;25563;50.844;4.308;2023-12-28T05:19:37;11.90;99.90
39889;DHT22;25563;50.844;4.308;2023-12-28T05:22:04;12.00;99.90
39889;DHT22;25563;50.844;4.308;2023-12-28T05:24:32;12.10;99.90
39889;DHT22;25563;50.844;4.308;2023-12-28T05:27:00;12.00;99.90
39889;DHT22;25563;50.844;4.308;2023-12-28T05:29:26;12.00;99.90
39889;DHT22;25563;50.844;4.308;2023-12-28T05:31:52;11.90;99.90
39889;DHT22;25563;50.844;4.308;2023-12-28T05:34:18;11.90;99.90
39889;DHT22;25563;50.844;4.308;2023-12-28T05:36:43;12.10;99.90
39889;DHT22;25563;50.844;4.308;2023-12-28T05:39:11;12.00;99.90
39889;DHT22;25563;50.844;4.308;2023-12-28T05:41:41;12.00;99.90
39889;DHT22;25563;50.844;4.308;2023-12-28T05:44:07;12.20;99.90
39889;DHT22;25563;50.844;4.308;2023-12-28T05:46:33;12.20;99.90
39889;DHT22;25563;50.844;4.308;2023-12-28T05:48:58;12.10;99.90
39889;DHT22;25563;50.844;4.308;2023-12-28T05:51:24;11.80;99.90
39889;DHT22;25563;50.844;4.308;2023-12-28T05:53:50;11.90;99.90
39889;DHT22;25563;50.844;4.308;2023-12-28T05:56:16;12.00;99.90
39889;DHT22;25563;50.844;4.308;2023-12-28T05:58:42;12.10;99.90
39889;DHT22;25563;50.844;4.308;2023-12-28T06:01:09;12.10;99.90
39889;DHT22;25563;50.844;4.308;2023-12-28T06:03:35;12.10;99.90
39889;DHT22;25563;50.844;4.308;2023-12-28T06:06:00;11.90;99.90
39889;DHT22;25563;50.844;4.308;2023-12-28T06:08:26;11.90;99.90
39889;DHT22;25563;50.844;4.308;2023-12-28T06:10:53;12.00;99.90
39889;DHT22;25563;50.844;4.308;2023-12-28T06:13:19;11.90;99.90
39889;DHT22;25563;50.844;4.308;2023-12-28T06:15:45;11.80;99.90
39889;DHT22;25563;50.844;4.308;2023-12-28T06:18:11;11.90;99.90
39889;DHT22;25563;50.844;4.308;2023-12-28T06:20:37;11.80;99.90
39889;DHT22;25563;50.844;4.308;2023-12-28T06:23:04;11.80;99.90
39889;DHT22;25563;50.844;4.308;2023-12-28T06:25:31;11.70;99.90
39889;DHT22;25563;50.844;4.308;2023-12-28T06:27:56;11.70;99.90
39889;DHT22;25563;50.844;4.308;2023-12-28T06:30:22;11.60;99.90
39889;DHT22;25563;50.844;4.308;2023-12-28T06:32:48;11.50;99.90
39889;DHT22;25563;50.844;4.308;2023-12-28T06:35:15;11.70;99.90
39889;DHT22;25563;50.844;4.308;2023-12-28T06:37:42;11.70;99.90
39889;DHT22;25563;50.844;4.308;2023-12-28T06:40:08;11.60;99.90
39889;DHT22;25563;50.844;4.308;2023-12-28T06:42:34;11.60;99.90
39889;DHT22;25563;50.844;4.308;2023-12-28T06:45:00;11.60;99.90
39889;DHT22;25563;50.844;4.308;2023-12-28T06:47:26;11.50;99.90
39889;DHT22;25563;50.844;4.308;2023-12-28T06:49:52;11.60;99.90
39889;DHT22;25563;50.844;4.308;2023-12-28T06:52:17;11.50;99.90
39889;DHT22;25563;50.844;4.308;2023-12-28T06:54:43;11.50;99.90
39889;DHT22;25563;50.844;4.308;2023-12-28T06:57:09;11.40;99.90
39889;DHT22;25563;50.844;4.308;2023-12-28T06:59:38;11.40;99.90
39889;DHT22;25563;50.844;4.308;2023-12-28T07:02:04;11.30;99.90
39889;DHT22;25563;50.844;4.308;2023-12-28T07:04:30;11.60;99.90
39889;DHT22;25563;50.844;4.308;2023-12-28T07:06:58;11.40;99.90
39889;DHT22;25563;50.844;4.308;2023-12-28T07:09:24;11.50;99.90
39889;DHT22;25563;50.844;4.308;2023-12-28T07:11:50;11.60;99.90
39889;DHT22;25563;50.844;4.308;2023-12-28T07:14:16;11.40;99.90
39889;DHT22;25563;50.844;4.308;2023-12-28T07:16:42;11.50;99.90
39889;DHT22;25563;50.844;4.308;2023-12-28T07:19:08;11.30;99.90
39889;DHT22;25563;50.844;4.308;2023-12-28T07:21:33;11.30;99.90
39889;DHT22;25563;50.844;4.308;2023-12-28T07:24:00;11.30;99.90
39889;DHT22;25563;50.844;4.308;2023-12-28T07:26:26;11.50;99.90
39889;DHT22;25563;50.844;4.308;2023-12-28T07:28:52;11.50;99.90
39889;DHT22;25563;50.844;4.308;2023-12-28T07:31:24;11.40;99.90
39889;DHT22;25563;50.844;4.308;2023-12-28T07:33:52;11.50;99.90
39889;DHT22;25563;50.844;4.308;2023-12-28T07:36:18;11.50;99.90
39889;DHT22;25563;50.844;4.308;2023-12-28T07:38:44;11.20;99.90
39889;DHT22;25563;50.844;4.308;2023-12-28T07:41:10;11.40;99.90
39889;DHT22;25563;50.844;4.308;2023-12-28T07:43:36;11.60;99.90
39889;DHT22;25563;50.844;4.308;2023-12-28T07:46:02;11.50;99.90
39889;DHT22;25563;50.844;4.308;2023-12-28T07:48:28;11.40;99.90
39889;DHT22;25563;50.844;4.308;2023-12-28T07:50:58;11.50;99.90
39889;DHT22;25563;50.844;4.308;2023-12-28T07:53:24;11.40;99.90
39889;DHT22;25563;50.844;4.308;2023-12-28T07:55:50;11.40;99.90
39889;DHT22;25563;50.844;4.308;2023-12-28T07:58:15;11.30;99.90
39889;DHT22;25563;50.844;4.308;2023-12-28T08:00:42;11.40;99.90
39889;DHT22;25563;50.844;4.308;2023-12-28T08:03:07;11.30;99.90
39889;DHT22;25563;50.844;4.308;2023-12-28T08:05:33;11.40;99.90
39889;DHT22;25563;50.844;4.308;2023-12-28T08:07:59;10.30;99.90
39889;DHT22;25563;50.844;4.308;2023-12-28T08:10:28;11.10;99.90
39889;DHT22;25563;50.844;4.308;2023-12-28T08:12:53;12.10;99.90
39889;DHT22;25563;50.844;4.308;2023-12-28T08:15:19;10.20;99.90
39889;DHT22;25563;50.844;4.308;2023-12-28T08:17:45;11.30;99.90
39889;DHT22;25563;50.844;4.308;2023-12-28T08:20:11;11.50;99.90
39889;DHT22;25563;50.844;4.308;2023-12-28T08:22:39;11.60;99.90
39889;DHT22;25563;50.844;4.308;2023-12-28T08:25:05;11.70;99.90
39889;DHT22;25563;50.844;4.308;2023-12-28T08:27:33;11.50;99.90
39889;DHT22;25563;50.844;4.308;2023-12-28T08:29:58;11.70;99.90
39889;DHT22;25563;50.844;4.308;2023-12-28T08:32:24;11.50;99.90
39889;DHT22;25563;50.844;4.308;2023-12-28T08:34:50;11.60;99.90
39889;DHT22;25563;50.844;4.308;2023-12-28T08:37:16;11.70;99.90
39889;DHT22;25563;50.844;4.308;2023-12-28T08:39:42;12.40;99.90
39889;DHT22;25563;50.844;4.308;2023-12-28T08:42:08;11.70;99.90
